sensor_id;sensor_type;location;lat;lon;timestamp;pressure;altitude;pressure_sealevel;temperature;humidity
58955;BME280;45815;52.334;5.024;2023-04-04T00:01:55;103092.00;;;5.38;100.00
58955;BME280;45815;52.334;5.024;2023-04-04T00:04:21;103093.34;;;5.33;100.00
58955;BME280;45815;52.334;5.024;2023-04-04T00:06:47;103093.13;;;5.29;100.00
58955;BME280;45815;52.334;5.024;2023-04-04T00:09:12;103095.00;;;5.20;100.00
58955;BME280;45815;52.334;5.024;2023-04-04T00:11:39;103081.50;;;5.14;100.00
58955;BME280;45815;52.334;5.024;2023-04-04T00:14:05;103095.75;;;5.07;100.00
58955;BME280;45815;52.334;5.024;2023-04-04T00:16:31;103092.09;;;5.05;100.00
58955;BME280;45815;52.334;5.024;2023-04-04T00:18:56;103083.94;;;5.01;100.00
58955;BME280;45815;52.334;5.024;2023-04-04T00:21:21;103076.72;;;4.97;100.00
58955;BME280;45815;52.334;5.024;2023-04-04T00:23:49;103080.75;;;4.93;100.00
58955;BME280;45815;52.334;5.024;2023-04-04T00:26:15;103078.47;;;4.86;100.00
58955;BME280;45815;52.334;5.024;2023-04-04T00:28:41;103073.13;;;4.84;100.00
58955;BME280;45815;52.334;5.024;2023-04-04T00:31:07;103077.06;;;4.79;100.00
58955;BME280;45815;52.334;5.024;2023-04-04T00:33:33;103085.19;;;4.72;100.00
58955;BME280;45815;52.334;5.024;2023-04-04T00:35:59;103089.91;;;4.66;100.00
58955;BME280;45815;52.334;5.024;2023-04-04T00:38:24;103097.47;;;4.63;100.00
58955;BME280;45815;52.334;5.024;2023-04-04T00:40:50;103092.94;;;4.60;100.00
58955;BME280;45815;52.334;5.024;2023-04-04T00:43:17;103086.59;;;4.57;100.00
58955;BME280;45815;52.334;5.024;2023-04-04T00:45:43;103078.06;;;4.48;100.00
58955;BME280;45815;52.334;5.024;2023-04-04T00:48:08;103081.69;;;4.50;100.00
58955;BME280;45815;52.334;5.024;2023-04-04T00:50:34;103082.22;;;4.46;100.00
58955;BME280;45815;52.334;5.024;2023-04-04T00:53:00;103079.25;;;4.41;100.00
58955;BME280;45815;52.334;5.024;2023-04-04T00:55:25;103080.81;;;4.39;100.00
58955;BME280;45815;52.334;5.024;2023-04-04T00:57:51;103084.63;;;4.32;100.00
58955;BME280;45815;52.334;5.024;2023-04-04T01:00:17;103076.69;;;4.31;100.00
58955;BME280;45815;52.334;5.024;2023-04-04T01:02:43;103071.16;;;4.26;100.00
58955;BME280;45815;52.334;5.024;2023-04-04T01:05:09;103068.81;;;4.19;100.00
58955;BME280;45815;52.334;5.024;2023-04-04T01:07:38;103066.88;;;4.16;100.00
58955;BME280;45815;52.334;5.024;2023-04-04T01:10:04;103067.06;;;4.08;100.00
58955;BME280;45815;52.334;5.024;2023-04-04T01:12:30;103065.75;;;4.02;100.00
58955;BME280;45815;52.334;5.024;2023-04-04T01:14:55;103066.31;;;3.98;100.00
58955;BME280;45815;52.334;5.024;2023-04-04T01:17:22;103063.44;;;3.95;100.00
58955;BME280;45815;52.334;5.024;2023-04-04T01:20:10;103063.22;;;3.82;100.00
58955;BME280;45815;52.334;5.024;2023-04-04T01:22:56;103062.69;;;3.86;100.00
58955;BME280;45815;52.334;5.024;2023-04-04T01:25:32;103072.34;;;3.77;100.00
58955;BME280;45815;52.334;5.024;2023-04-04T01:28:03;103077.16;;;3.72;100.00
58955;BME280;45815;52.334;5.024;2023-04-04T01:30:31;103073.38;;;3.69;100.00
58955;BME280;45815;52.334;5.024;2023-04-04T01:33:03;103076.50;;;3.65;100.00
58955;BME280;45815;52.334;5.024;2023-04-04T01:38:54;103075.47;;;3.52;100.00
58955;BME280;45815;52.334;5.024;2023-04-04T01:41:24;103070.53;;;3.55;100.00
58955;BME280;45815;52.334;5.024;2023-04-04T01:43:55;103068.72;;;3.54;100.00
58955;BME280;45815;52.334;5.024;2023-04-04T01:46:21;103076.28;;;3.51;100.00
58955;BME280;45815;52.334;5.024;2023-04-04T01:48:48;103070.81;;;3.48;100.00
58955;BME280;45815;52.334;5.024;2023-04-04T01:51:17;103074.06;;;3.46;100.00
58955;BME280;45815;52.334;5.024;2023-04-04T01:53:43;103076.03;;;3.38;100.00
58955;BME280;45815;52.334;5.024;2023-04-04T01:56:08;103074.84;;;3.34;100.00
58955;BME280;45815;52.334;5.024;2023-04-04T01:58:34;103062.03;;;3.26;100.00
58955;BME280;45815;52.334;5.024;2023-04-04T02:01:00;103069.00;;;3.27;100.00
58955;BME280;45815;52.334;5.024;2023-04-04T02:03:26;103077.06;;;3.30;100.00
58955;BME280;45815;52.334;5.024;2023-04-04T02:05:51;103071.59;;;3.27;100.00
58955;BME280;45815;52.334;5.024;2023-04-04T02:08:18;103072.50;;;3.27;100.00
58955;BME280;45815;52.334;5.024;2023-04-04T02:10:50;103074.72;;;3.23;100.00
58955;BME280;45815;52.334;5.024;2023-04-04T02:13:15;103079.00;;;3.22;100.00
58955;BME280;45815;52.334;5.024;2023-04-04T02:15:41;103076.00;;;3.17;100.00
58955;BME280;45815;52.334;5.024;2023-04-04T02:18:07;103071.47;;;3.15;100.00
58955;BME280;45815;52.334;5.024;2023-04-04T02:20:33;103075.53;;;3.11;100.00
58955;BME280;45815;52.334;5.024;2023-04-04T02:22:59;103078.88;;;3.10;100.00
58955;BME280;45815;52.334;5.024;2023-04-04T02:25:24;103076.03;;;3.07;100.00
58955;BME280;45815;52.334;5.024;2023-04-04T02:27:50;103056.69;;;2.93;100.00
58955;BME280;45815;52.334;5.024;2023-04-04T02:30:16;103073.78;;;3.02;100.00
58955;BME280;45815;52.334;5.024;2023-04-04T02:32:42;103074.44;;;2.99;100.00
58955;BME280;45815;52.334;5.024;2023-04-04T02:35:11;103069.00;;;2.96;100.00
58955;BME280;45815;52.334;5.024;2023-04-04T02:37:37;103068.75;;;2.93;100.00
58955;BME280;45815;52.334;5.024;2023-04-04T02:40:06;103062.38;;;2.89;100.00
58955;BME280;45815;52.334;5.024;2023-04-04T02:42:35;103065.75;;;2.88;100.00
58955;BME280;45815;52.334;5.024;2023-04-04T02:45:00;103064.56;;;2.85;100.00
58955;BME280;45815;52.334;5.024;2023-04-04T02:47:26;103067.97;;;2.84;100.00
58955;BME280;45815;52.334;5.024;2023-04-04T02:49:52;103063.28;;;2.80;100.00
58955;BME280;45815;52.334;5.024;2023-04-04T02:52:19;103064.81;;;2.78;100.00
58955;BME280;45815;52.334;5.024;2023-04-04T02:54:45;103061.97;;;2.74;100.00
58955;BME280;45815;52.334;5.024;2023-04-04T02:57:20;103057.03;;;2.67;100.00
58955;BME280;45815;52.334;5.024;2023-04-04T02:59:45;103055.34;;;2.68;100.00
58955;BME280;45815;52.334;5.024;2023-04-04T03:02:11;103048.22;;;2.65;100.00
58955;BME280;45815;52.334;5.024;2023-04-04T03:04:36;103049.75;;;2.63;100.00
58955;BME280;45815;52.334;5.024;2023-04-04T03:07:02;103051.47;;;2.63;100.00
58955;BME280;45815;52.334;5.024;2023-04-04T03:09:28;103051.47;;;2.63;100.00
58955;BME280;45815;52.334;5.024;2023-04-04T03:11:53;103053.66;;;2.58;100.00
58955;BME280;45815;52.334;5.024;2023-04-04T03:14:19;103058.44;;;2.53;100.00
58955;BME280;45815;52.334;5.024;2023-04-04T03:16:45;103057.38;;;2.51;100.00
58955;BME280;45815;52.334;5.024;2023-04-04T03:19:14;103060.13;;;2.53;100.00
58955;BME280;45815;52.334;5.024;2023-04-04T03:21:40;103045.81;;;2.48;100.00
58955;BME280;45815;52.334;5.024;2023-04-04T03:24:06;103052.19;;;2.51;100.00
58955;BME280;45815;52.334;5.024;2023-04-04T03:26:31;103052.84;;;2.49;100.00
58955;BME280;45815;52.334;5.024;2023-04-04T03:28:56;103052.69;;;2.47;100.00
58955;BME280;45815;52.334;5.024;2023-04-04T03:31:23;103051.53;;;2.44;100.00
58955;BME280;45815;52.334;5.024;2023-04-04T03:33:49;103049.59;;;2.41;100.00
58955;BME280;45815;52.334;5.024;2023-04-04T03:36:14;103054.47;;;2.38;100.00
58955;BME280;45815;52.334;5.024;2023-04-04T03:38:40;103033.88;;;2.29;100.00
58955;BME280;45815;52.334;5.024;2023-04-04T03:41:08;103046.44;;;2.35;100.00
58955;BME280;45815;52.334;5.024;2023-04-04T03:43:33;103053.31;;;2.35;100.00
58955;BME280;45815;52.334;5.024;2023-04-04T03:46:03;103054.88;;;2.32;100.00
58955;BME280;45815;52.334;5.024;2023-04-04T03:48:29;103053.31;;;2.35;100.00
58955;BME280;45815;52.334;5.024;2023-04-04T03:50:55;103052.53;;;2.36;100.00
58955;BME280;45815;52.334;5.024;2023-04-04T03:53:25;103053.31;;;2.35;100.00
58955;BME280;45815;52.334;5.024;2023-04-04T03:55:51;103056.66;;;2.33;100.00
58955;BME280;45815;52.334;5.024;2023-04-04T03:58:19;103059.25;;;2.33;100.00
58955;BME280;45815;52.334;5.024;2023-04-04T04:00:44;103052.78;;;2.28;100.00
58955;BME280;45815;52.334;5.024;2023-04-04T04:03:10;103056.16;;;2.27;100.00
58955;BME280;45815;52.334;5.024;2023-04-04T04:05:35;103059.50;;;2.26;100.00
58955;BME280;45815;52.334;5.024;2023-04-04T04:08:01;103055.09;;;2.25;100.00
58955;BME280;45815;52.334;5.024;2023-04-04T04:10:26;103058.44;;;2.24;100.00
58955;BME280;45815;52.334;5.024;2023-04-04T04:12:52;103061.69;;;2.22;100.00
58955;BME280;45815;52.334;5.024;2023-04-04T04:15:17;103065.06;;;2.21;100.00
58955;BME280;45815;52.334;5.024;2023-04-04T04:17:44;103061.56;;;2.20;100.00
58955;BME280;45815;52.334;5.024;2023-04-04T04:20:11;103057.13;;;2.19;100.00
58955;BME280;45815;52.334;5.024;2023-04-04T04:22:45;103054.06;;;2.23;100.00
58955;BME280;45815;52.334;5.024;2023-04-04T04:25:12;103035.50;;;2.19;100.00
58955;BME280;45815;52.334;5.024;2023-04-04T04:27:39;103053.31;;;2.35;100.00
58955;BME280;45815;52.334;5.024;2023-04-04T04:30:05;103051.78;;;2.37;100.00
58955;BME280;45815;52.334;5.024;2023-04-04T04:32:36;103053.84;;;2.41;100.00
58955;BME280;45815;52.334;5.024;2023-04-04T04:35:01;103049.59;;;2.41;100.00
58955;BME280;45815;52.334;5.024;2023-04-04T04:37:31;103054.00;;;2.42;100.00
58955;BME280;45815;52.334;5.024;2023-04-04T04:39:57;103049.44;;;2.40;100.00
58955;BME280;45815;52.334;5.024;2023-04-04T04:42:35;103062.91;;;2.36;100.00
58955;BME280;45815;52.334;5.024;2023-04-04T04:45:02;103063.31;;;2.40;100.00
58955;BME280;45815;52.334;5.024;2023-04-04T04:47:30;103058.38;;;2.43;100.00
58955;BME280;45815;52.334;5.024;2023-04-04T04:49:57;103055.69;;;2.42;100.00
58955;BME280;45815;52.334;5.024;2023-04-04T04:52:35;103063.16;;;2.39;100.00
58955;BME280;45815;52.334;5.024;2023-04-04T04:55:01;103056.19;;;2.38;100.00
58955;BME280;45815;52.334;5.024;2023-04-04T04:57:27;103057.72;;;2.36;100.00
58955;BME280;45815;52.334;5.024;2023-04-04T04:59:53;103060.06;;;2.32;100.00
58955;BME280;45815;52.334;5.024;2023-04-04T05:02:19;103053.03;;;2.31;100.00
58955;BME280;45815;52.334;5.024;2023-04-04T05:04:45;103045.78;;;2.27;100.00
58955;BME280;45815;52.334;5.024;2023-04-04T05:07:13;103061.34;;;2.27;100.00
58955;BME280;45815;52.334;5.024;2023-04-04T05:09:42;103065.59;;;2.27;100.00
58955;BME280;45815;52.334;5.024;2023-04-04T05:12:08;103066.22;;;2.24;100.00
58955;BME280;45815;52.334;5.024;2023-04-04T05:14:40;103062.31;;;2.19;100.00
58955;BME280;45815;52.334;5.024;2023-04-04T05:17:06;103079.31;;;2.26;100.00
58955;BME280;45815;52.334;5.024;2023-04-04T05:19:32;103078.03;;;2.31;100.00
58955;BME280;45815;52.334;5.024;2023-04-04T05:21:59;103081.94;;;2.36;100.00
58955;BME280;45815;52.334;5.024;2023-04-04T05:24:36;103082.47;;;2.32;100.00
58955;BME280;45815;52.334;5.024;2023-04-04T05:27:02;103088.81;;;2.36;100.00
58955;BME280;45815;52.334;5.024;2023-04-04T05:29:33;103075.59;;;2.32;100.00
58955;BME280;45815;52.334;5.024;2023-04-04T05:32:00;103082.59;;;2.33;100.00
58955;BME280;45815;52.334;5.024;2023-04-04T05:34:26;103076.34;;;2.31;100.00
58955;BME280;45815;52.334;5.024;2023-04-04T05:36:52;103071.69;;;2.27;100.00
58955;BME280;45815;52.334;5.024;2023-04-04T05:39:18;103068.06;;;2.25;100.00
58955;BME280;45815;52.334;5.024;2023-04-04T05:41:54;103060.13;;;2.24;100.00
58955;BME280;45815;52.334;5.024;2023-04-04T05:44:20;103062.31;;;2.19;100.00
58955;BME280;45815;52.334;5.024;2023-04-04T05:46:45;103063.88;;;2.17;100.00
58955;BME280;45815;52.334;5.024;2023-04-04T05:49:11;103069.03;;;2.17;100.00
58955;BME280;45815;52.334;5.024;2023-04-04T05:51:41;103068.41;;;2.20;100.00
58955;BME280;45815;52.334;5.024;2023-04-04T05:54:12;103074.53;;;2.20;100.00
58955;BME280;45815;52.334;5.024;2023-04-04T05:56:39;103076.59;;;2.24;100.00
58955;BME280;45815;52.334;5.024;2023-04-04T05:59:11;103068.19;;;2.27;100.00
58955;BME280;45815;52.334;5.024;2023-04-04T06:01:50;103064.19;;;2.30;100.00
58955;BME280;45815;52.334;5.024;2023-04-04T06:04:16;103066.41;;;2.36;100.00
58955;BME280;45815;52.334;5.024;2023-04-04T06:06:42;103066.03;;;2.42;100.00
58955;BME280;45815;52.334;5.024;2023-04-04T06:09:07;103058.28;;;2.52;100.00
58955;BME280;45815;52.334;5.024;2023-04-04T06:11:33;103058.09;;;2.69;100.00
58955;BME280;45815;52.334;5.024;2023-04-04T06:14:03;103057.03;;;2.78;100.00
58955;BME280;45815;52.334;5.024;2023-04-04T06:16:28;103060.94;;;2.83;100.00
58955;BME280;45815;52.334;5.024;2023-04-04T06:18:54;103066.03;;;2.91;100.00
58955;BME280;45815;52.334;5.024;2023-04-04T06:21:19;103066.91;;;2.92;100.00
58955;BME280;45815;52.334;5.024;2023-04-04T06:23:45;103069.91;;;2.96;100.00
58955;BME280;45815;52.334;5.024;2023-04-04T06:26:10;103074.72;;;3.02;100.00
58955;BME280;45815;52.334;5.024;2023-04-04T06:28:46;103072.25;;;3.04;100.00
58955;BME280;45815;52.334;5.024;2023-04-04T06:31:12;103064.84;;;3.08;100.00
58955;BME280;45815;52.334;5.024;2023-04-04T06:33:38;103063.31;;;3.10;100.00
58955;BME280;45815;52.334;5.024;2023-04-04T06:36:03;103063.56;;;3.13;100.00
58955;BME280;45815;52.334;5.024;2023-04-04T06:38:29;103061.34;;;3.18;100.00
58955;BME280;45815;52.334;5.024;2023-04-04T06:40:57;103056.69;;;3.24;100.00
58955;BME280;45815;52.334;5.024;2023-04-04T06:43:23;103068.34;;;3.29;100.00
58955;BME280;45815;52.334;5.024;2023-04-04T06:45:49;103073.19;;;3.35;100.00
58955;BME280;45815;52.334;5.024;2023-04-04T06:48:17;103070.84;;;3.38;100.00
58955;BME280;45815;52.334;5.024;2023-04-04T06:50:43;103066.69;;;3.40;100.00
58955;BME280;45815;52.334;5.024;2023-04-04T06:53:11;103091.06;;;3.52;100.00
58955;BME280;45815;52.334;5.024;2023-04-04T06:55:37;103085.59;;;3.59;100.00
58955;BME280;45815;52.334;5.024;2023-04-04T06:58:04;103088.81;;;3.67;100.00
58955;BME280;45815;52.334;5.024;2023-04-04T07:00:29;103085.94;;;3.74;100.00
58955;BME280;45815;52.334;5.024;2023-04-04T07:02:59;103083.59;;;3.88;100.00
58955;BME280;45815;52.334;5.024;2023-04-04T07:05:25;103080.56;;;4.04;100.00
58955;BME280;45815;52.334;5.024;2023-04-04T07:07:51;103086.00;;;4.17;100.00
58955;BME280;45815;52.334;5.024;2023-04-04T07:10:19;103092.41;;;4.32;100.00
58955;BME280;45815;52.334;5.024;2023-04-04T07:12:45;103088.75;;;4.40;100.00
58955;BME280;45815;52.334;5.024;2023-04-04T07:15:10;103092.38;;;4.42;100.00
58955;BME280;45815;52.334;5.024;2023-04-04T07:17:37;103087.78;;;4.50;100.00
58955;BME280;45815;52.334;5.024;2023-04-04T07:20:04;103088.53;;;4.59;100.00
58955;BME280;45815;52.334;5.024;2023-04-04T07:22:30;103079.75;;;4.69;100.00
58955;BME280;45815;52.334;5.024;2023-04-04T07:24:55;103082.28;;;4.79;100.00
58955;BME280;45815;52.334;5.024;2023-04-04T07:27:21;103062.13;;;4.77;100.00
58955;BME280;45815;52.334;5.024;2023-04-04T07:29:46;103065.63;;;4.99;100.00
58955;BME280;45815;52.334;5.024;2023-04-04T07:32:11;103076.75;;;5.08;100.00
58955;BME280;45815;52.334;5.024;2023-04-04T07:34:37;103081.50;;;5.14;100.00
58955;BME280;45815;52.334;5.024;2023-04-04T07:37:02;103082.00;;;5.20;100.00
58955;BME280;45815;52.334;5.024;2023-04-04T07:39:28;103062.28;;;5.24;100.00
58955;BME280;45815;52.334;5.024;2023-04-04T07:41:53;103077.94;;;5.36;100.00
58955;BME280;45815;52.334;5.024;2023-04-04T07:44:19;103081.72;;;5.51;100.00
58955;BME280;45815;52.334;5.024;2023-04-04T07:46:44;103079.34;;;5.66;100.00
58955;BME280;45815;52.334;5.024;2023-04-04T07:49:10;103075.19;;;5.80;100.00
58955;BME280;45815;52.334;5.024;2023-04-04T07:51:35;103071.47;;;6.00;100.00
58955;BME280;45815;52.334;5.024;2023-04-04T07:54:01;103074.41;;;6.16;100.00
58955;BME280;45815;52.334;5.024;2023-04-04T07:56:27;103064.88;;;6.28;100.00
58955;BME280;45815;52.334;5.024;2023-04-04T07:58:53;103062.69;;;6.46;100.00
58955;BME280;45815;52.334;5.024;2023-04-04T08:01:18;103064.78;;;6.64;100.00
58955;BME280;45815;52.334;5.024;2023-04-04T08:03:43;103062.94;;;6.74;100.00
58955;BME280;45815;52.334;5.024;2023-04-04T08:06:09;103056.72;;;6.86;100.00
58955;BME280;45815;52.334;5.024;2023-04-04T08:08:35;103061.91;;;6.97;100.00
58955;BME280;45815;52.334;5.024;2023-04-04T08:11:00;103065.91;;;7.17;100.00
58955;BME280;45815;52.334;5.024;2023-04-04T08:13:26;103067.28;;;7.37;100.00
58955;BME280;45815;52.334;5.024;2023-04-04T08:15:51;103059.03;;;7.58;100.00
58955;BME280;45815;52.334;5.024;2023-04-04T08:18:17;103058.66;;;7.78;100.00
58955;BME280;45815;52.334;5.024;2023-04-04T08:20:42;103061.69;;;7.98;100.00
58955;BME280;45815;52.334;5.024;2023-04-04T08:23:08;103061.56;;;8.23;100.00
58955;BME280;45815;52.334;5.024;2023-04-04T08:25:34;103049.09;;;8.45;100.00
58955;BME280;45815;52.334;5.024;2023-04-04T08:27:59;103056.38;;;8.64;100.00
58955;BME280;45815;52.334;5.024;2023-04-04T08:30:25;103045.22;;;8.82;100.00
58955;BME280;45815;52.334;5.024;2023-04-04T08:32:50;103046.97;;;8.96;100.00
58955;BME280;45815;52.334;5.024;2023-04-04T08:35:16;103045.13;;;9.08;100.00
58955;BME280;45815;52.334;5.024;2023-04-04T08:37:44;103041.94;;;9.14;100.00
58955;BME280;45815;52.334;5.024;2023-04-04T08:40:14;103044.22;;;9.23;100.00
58955;BME280;45815;52.334;5.024;2023-04-04T08:42:41;103035.53;;;9.24;100.00
58955;BME280;45815;52.334;5.024;2023-04-04T08:45:11;103034.19;;;9.30;99.05
58955;BME280;45815;52.334;5.024;2023-04-04T08:47:37;103034.38;;;9.34;96.52
58955;BME280;45815;52.334;5.024;2023-04-04T08:50:06;103041.59;;;9.52;90.98
58955;BME280;45815;52.334;5.024;2023-04-04T08:52:33;103044.28;;;9.69;91.44
58955;BME280;45815;52.334;5.024;2023-04-04T08:55:00;103043.00;;;9.92;91.35
58955;BME280;45815;52.334;5.024;2023-04-04T08:57:26;103040.69;;;10.13;90.17
58955;BME280;45815;52.334;5.024;2023-04-04T08:59:53;103041.47;;;10.27;89.70
58955;BME280;45815;52.334;5.024;2023-04-04T09:02:23;103040.38;;;10.38;88.81
58955;BME280;45815;52.334;5.024;2023-04-04T09:04:51;103045.91;;;10.59;87.72
58955;BME280;45815;52.334;5.024;2023-04-04T09:07:17;103041.78;;;10.81;88.49
58955;BME280;45815;52.334;5.024;2023-04-04T09:09:45;103046.25;;;10.98;84.60
58955;BME280;45815;52.334;5.024;2023-04-04T09:12:12;103050.88;;;11.20;84.48
58955;BME280;45815;52.334;5.024;2023-04-04T09:14:39;103057.25;;;11.41;84.21
58955;BME280;45815;52.334;5.024;2023-04-04T09:17:04;103055.63;;;11.61;86.44
58955;BME280;45815;52.334;5.024;2023-04-04T09:19:29;103056.56;;;11.80;86.02
58955;BME280;45815;52.334;5.024;2023-04-04T09:21:56;103062.06;;;12.02;82.98
58955;BME280;45815;52.334;5.024;2023-04-04T09:24:22;103057.38;;;12.15;80.48
58955;BME280;45815;52.334;5.024;2023-04-04T09:26:48;103049.88;;;12.22;78.26
58955;BME280;45815;52.334;5.024;2023-04-04T09:29:19;103048.72;;;12.35;78.76
58955;BME280;45815;52.334;5.024;2023-04-04T09:31:46;103038.09;;;12.34;77.22
58955;BME280;45815;52.334;5.024;2023-04-04T09:34:14;103049.22;;;12.46;75.39
58955;BME280;45815;52.334;5.024;2023-04-04T09:36:40;103051.22;;;12.52;71.72
58955;BME280;45815;52.334;5.024;2023-04-04T09:39:06;103047.28;;;12.61;73.86
58955;BME280;45815;52.334;5.024;2023-04-04T09:41:32;103024.06;;;12.72;72.13
58955;BME280;45815;52.334;5.024;2023-04-04T09:43:59;103033.50;;;12.86;70.04
58955;BME280;45815;52.334;5.024;2023-04-04T09:46:25;103011.56;;;12.87;71.09
58955;BME280;45815;52.334;5.024;2023-04-04T09:48:52;103019.25;;;13.02;70.83
58955;BME280;45815;52.334;5.024;2023-04-04T09:51:19;103016.88;;;13.08;72.33
58955;BME280;45815;52.334;5.024;2023-04-04T09:53:48;103024.50;;;13.22;67.88
58955;BME280;45815;52.334;5.024;2023-04-04T09:56:13;103028.19;;;13.25;70.97
58955;BME280;45815;52.334;5.024;2023-04-04T09:58:39;103027.81;;;13.18;71.11
58955;BME280;45815;52.334;5.024;2023-04-04T10:01:08;103027.91;;;13.19;68.50
58955;BME280;45815;52.334;5.024;2023-04-04T10:03:35;103032.59;;;13.26;72.18
58955;BME280;45815;52.334;5.024;2023-04-04T10:06:08;103024.34;;;12.98;66.69
58955;BME280;45815;52.334;5.024;2023-04-04T10:08:38;103031.44;;;13.20;68.22
58955;BME280;45815;52.334;5.024;2023-04-04T10:11:05;103024.41;;;13.20;67.62
58955;BME280;45815;52.334;5.024;2023-04-04T10:13:35;103017.56;;;13.24;64.24
58955;BME280;45815;52.334;5.024;2023-04-04T10:16:02;103014.38;;;13.31;64.35
58955;BME280;45815;52.334;5.024;2023-04-04T10:18:30;103028.22;;;13.46;64.79
58955;BME280;45815;52.334;5.024;2023-04-04T10:20:57;103024.28;;;13.37;66.66
58955;BME280;45815;52.334;5.024;2023-04-04T10:23:24;103033.50;;;13.46;66.05
58955;BME280;45815;52.334;5.024;2023-04-04T10:25:57;103017.88;;;13.51;63.37
58955;BME280;45815;52.334;5.024;2023-04-04T10:28:23;103019.53;;;13.49;63.19
58955;BME280;45815;52.334;5.024;2023-04-04T10:36:29;103015.25;;;13.73;65.82
58955;BME280;45815;52.334;5.024;2023-04-04T10:39:01;103009.13;;;13.96;65.51
58955;BME280;45815;52.334;5.024;2023-04-04T10:41:30;103007.06;;;14.11;65.45
58955;BME280;45815;52.334;5.024;2023-04-04T10:43:59;102998.59;;;13.97;66.41
58955;BME280;45815;52.334;5.024;2023-04-04T10:46:33;103006.06;;;14.07;66.10
58955;BME280;45815;52.334;5.024;2023-04-04T10:49:01;103010.25;;;14.02;63.91
58955;BME280;45815;52.334;5.024;2023-04-04T10:51:29;103005.31;;;14.11;66.93
58955;BME280;45815;52.334;5.024;2023-04-04T10:53:55;102999.75;;;14.26;66.32
58955;BME280;45815;52.334;5.024;2023-04-04T10:56:21;102995.56;;;14.31;63.97
58955;BME280;45815;52.334;5.024;2023-04-04T10:58:48;102980.59;;;14.32;61.75
58955;BME280;45815;52.334;5.024;2023-04-04T11:01:13;102988.88;;;14.41;59.97
58955;BME280;45815;52.334;5.024;2023-04-04T11:04:14;102984.78;;;14.49;60.54
58955;BME280;45815;52.334;5.024;2023-04-04T11:09:50;102981.75;;;14.63;56.44
58955;BME280;45815;52.334;5.024;2023-04-04T11:12:26;102984.09;;;14.77;62.81
58955;BME280;45815;52.334;5.024;2023-04-04T11:14:56;102968.72;;;14.91;60.69
58955;BME280;45815;52.334;5.024;2023-04-04T11:17:42;102978.13;;;15.09;59.16
58955;BME280;45815;52.334;5.024;2023-04-04T11:20:15;102969.97;;;15.28;60.33
58955;BME280;45815;52.334;5.024;2023-04-04T11:22:41;102971.13;;;15.36;56.81
58955;BME280;45815;52.334;5.024;2023-04-04T11:25:30;102976.94;;;15.26;55.55
58955;BME280;45815;52.334;5.024;2023-04-04T11:27:56;102971.31;;;15.43;57.23
58955;BME280;45815;52.334;5.024;2023-04-04T11:30:23;102971.00;;;15.33;56.08
58955;BME280;45815;52.334;5.024;2023-04-04T11:32:49;102949.47;;;15.48;57.95
58955;BME280;45815;52.334;5.024;2023-04-04T11:35:15;102960.06;;;15.75;56.87
58955;BME280;45815;52.334;5.024;2023-04-04T11:40:15;102959.88;;;15.98;54.68
58955;BME280;45815;52.334;5.024;2023-04-04T11:42:41;102968.03;;;16.04;53.83
58955;BME280;45815;52.334;5.024;2023-04-04T11:45:07;102962.06;;;16.11;52.14
58955;BME280;45815;52.334;5.024;2023-04-04T11:47:34;102949.56;;;16.07;52.83
58955;BME280;45815;52.334;5.024;2023-04-04T11:50:02;102961.81;;;16.34;52.58
58955;BME280;45815;52.334;5.024;2023-04-04T11:52:32;102950.06;;;16.54;51.53
58955;BME280;45815;52.334;5.024;2023-04-04T11:54:59;102956.84;;;16.44;51.45
58955;BME280;45815;52.334;5.024;2023-04-04T11:57:24;102940.81;;;16.72;50.51
58955;BME280;45815;52.334;5.024;2023-04-04T11:59:50;102936.38;;;16.71;50.25
58955;BME280;45815;52.334;5.024;2023-04-04T12:02:23;102939.34;;;16.81;47.90
58955;BME280;45815;52.334;5.024;2023-04-04T12:04:51;102936.56;;;17.10;48.16
58955;BME280;45815;52.334;5.024;2023-04-04T12:07:17;102939.78;;;16.98;49.68
58955;BME280;45815;52.334;5.024;2023-04-04T12:09:44;102933.31;;;17.22;50.50
58955;BME280;45815;52.334;5.024;2023-04-04T12:12:13;102933.59;;;17.34;47.70
58955;BME280;45815;52.334;5.024;2023-04-04T12:14:40;102912.34;;;17.33;49.78
58955;BME280;45815;52.334;5.024;2023-04-04T12:17:06;102923.31;;;17.48;48.17
58955;BME280;45815;52.334;5.024;2023-04-04T12:19:35;102921.88;;;17.62;47.21
58955;BME280;45815;52.334;5.024;2023-04-04T12:22:05;102913.91;;;17.62;48.76
58955;BME280;45815;52.334;5.024;2023-04-04T12:24:32;102909.94;;;17.81;46.74
58955;BME280;45815;52.334;5.024;2023-04-04T12:26:57;102910.50;;;18.06;47.15
58955;BME280;45815;52.334;5.024;2023-04-04T12:29:24;102900.72;;;18.03;47.14
58955;BME280;45815;52.334;5.024;2023-04-04T12:31:52;102908.44;;;17.92;45.46
58955;BME280;45815;52.334;5.024;2023-04-04T12:34:22;102904.94;;;17.93;44.64
58955;BME280;45815;52.334;5.024;2023-04-04T12:36:51;102905.56;;;17.82;47.14
58955;BME280;45815;52.334;5.024;2023-04-04T12:39:18;102900.34;;;17.86;46.89
58955;BME280;45815;52.334;5.024;2023-04-04T12:41:51;102900.41;;;17.91;45.19
58955;BME280;45815;52.334;5.024;2023-04-04T12:44:30;102902.91;;;17.83;42.71
58955;BME280;45815;52.334;5.024;2023-04-04T12:46:57;102899.31;;;18.22;44.47
58955;BME280;45815;52.334;5.024;2023-04-04T12:49:30;102899.34;;;18.24;45.31
58955;BME280;45815;52.334;5.024;2023-04-04T12:51:57;102893.22;;;18.26;45.62
58955;BME280;45815;52.334;5.024;2023-04-04T12:54:31;102879.28;;;18.40;44.09
58955;BME280;45815;52.334;5.024;2023-04-04T12:56:57;102882.31;;;18.61;43.89
58955;BME280;45815;52.334;5.024;2023-04-04T12:59:28;102888.91;;;18.79;44.63
58955;BME280;45815;52.334;5.024;2023-04-04T13:01:54;102870.63;;;19.00;44.45
58955;BME280;45815;52.334;5.024;2023-04-04T13:04:21;102878.00;;;19.16;42.62
58955;BME280;45815;52.334;5.024;2023-04-04T13:06:47;102871.78;;;19.16;42.36